createdAt,value
2023-09-27T00:05:36.810Z,13.70
2023-09-27T00:33:50.475Z,13.40
2023-09-27T01:23:29.930Z,13.90
2023-09-27T01:58:17.433Z,13.50
2023-09-27T02:05:07.062Z,13.20
2023-09-27T02:11:55.399Z,13.20
2023-09-27T02:18:37.620Z,13.10
2023-09-27T02:53:44.881Z,12.60
2023-09-27T03:00:45.272Z,12.80
2023-09-27T03:14:27.336Z,12.80
2023-09-27T04:10:21.488Z,12.50
2023-09-27T05:13:47.831Z,12.60
2023-09-27T05:27:29.493Z,12.50
2023-09-27T06:02:17.327Z,13.00
2023-09-27T06:09:17.385Z,13.00
2023-09-27T07:12:17.935Z,22.70
2023-09-27T07:19:00.476Z,22.40
2023-09-27T07:25:49.110Z,22.20
2023-09-27T07:39:32.796Z,24.20
2023-09-27T07:46:18.347Z,25.80
2023-09-27T08:06:59.840Z,28.70
2023-09-27T09:10:17.641Z,29.00
2023-09-27T09:46:06.790Z,31.30
2023-09-27T10:30:39.767Z,34.30
2023-09-27T10:37:59.026Z,33.40
2023-09-27T10:44:44.254Z,30.50
2023-09-27T10:59:55.405Z,27.50
2023-09-27T11:06:37.897Z,26.80
2023-09-27T11:13:21.908Z,26.50
2023-09-27T11:20:12.525Z,25.80
2023-09-27T11:26:55.223Z,26.00
2023-09-27T13:53:41.133Z,26.30
2023-09-27T14:00:23.410Z,26.50
2023-09-27T14:07:05.573Z,26.20
2023-09-27T14:13:47.888Z,26.40
2023-09-27T14:20:30.192Z,26.90
2023-09-27T14:27:12.907Z,26.80
2023-09-27T14:34:01.862Z,27.30
2023-09-27T14:40:54.279Z,27.00
2023-09-27T14:47:36.578Z,26.70
2023-09-27T14:54:18.769Z,26.70
2023-09-27T15:01:01.502Z,26.70
2023-09-27T15:07:43.815Z,26.70
2023-09-27T15:14:26.024Z,26.40
2023-09-27T15:21:09.320Z,26.60
2023-09-27T15:27:51.507Z,26.50
2023-09-27T15:34:34.934Z,26.30
2023-09-27T15:41:20.753Z,26.10
2023-09-27T15:48:03.229Z,26.20
2023-09-27T15:54:45.477Z,26.10
2023-09-27T16:01:27.782Z,26.10
2023-09-27T16:08:09.942Z,25.80
2023-09-27T16:14:52.177Z,25.70
2023-09-27T16:21:34.465Z,25.50
2023-09-27T16:28:17.167Z,25.40
2023-09-27T16:35:00.239Z,25.20
2023-09-27T16:41:42.651Z,25.00
2023-09-27T16:48:26.134Z,24.70
2023-09-27T16:55:09.258Z,24.30
2023-09-27T17:01:51.641Z,24.20
2023-09-27T17:08:33.854Z,23.60
2023-09-27T17:15:16.052Z,23.10
2023-09-27T17:21:58.774Z,22.60
2023-09-27T17:28:40.938Z,22.20
2023-09-27T17:35:23.317Z,21.90
2023-09-27T17:42:06.113Z,21.70
2023-09-27T17:55:38.378Z,21.00
2023-09-27T18:02:21.248Z,20.70
2023-09-27T18:09:03.655Z,20.60
2023-09-27T18:15:46.016Z,20.20
2023-09-27T18:22:29.068Z,20.20
2023-09-27T18:29:11.567Z,20.00
2023-09-27T18:35:54.332Z,20.00
2023-09-27T18:42:36.456Z,19.70
2023-09-27T18:49:18.953Z,19.50
2023-09-27T18:56:01.489Z,19.10
2023-09-27T19:02:45.478Z,19.10
2023-09-27T19:09:27.702Z,19.00
2023-09-27T19:16:10.116Z,18.80
2023-09-27T19:22:53.514Z,18.60
2023-09-27T19:29:37.364Z,18.50
2023-09-27T19:36:20.645Z,18.40
2023-09-27T19:43:03.699Z,18.30
2023-09-27T19:49:46.140Z,18.00
2023-09-27T19:56:28.865Z,18.00
2023-09-27T20:03:11.480Z,17.90
2023-09-27T20:09:54.000Z,17.60
2023-09-27T20:16:36.329Z,17.40
2023-09-27T20:23:20.633Z,17.50
2023-09-27T20:30:03.460Z,17.00
2023-09-27T20:36:45.742Z,16.90
2023-09-27T20:43:28.287Z,16.90
2023-09-27T20:50:11.680Z,16.80
2023-09-27T20:56:53.825Z,16.80
2023-09-27T21:03:36.824Z,16.80
2023-09-27T21:10:19.008Z,16.70
2023-09-27T21:17:01.253Z,16.70
2023-09-27T21:23:43.779Z,16.60
2023-09-27T21:30:25.922Z,16.40
2023-09-27T21:37:08.235Z,16.40
2023-09-27T21:43:50.409Z,16.30
2023-09-27T21:50:32.609Z,16.30
2023-09-27T21:57:15.421Z,16.30
2023-09-27T22:03:57.587Z,16.20
2023-09-27T22:10:43.066Z,16.10
2023-09-27T22:17:25.197Z,16.00
2023-09-27T22:24:13.941Z,15.70
2023-09-27T22:31:01.038Z,15.70
2023-09-27T22:37:44.681Z,15.70
2023-09-27T22:44:26.939Z,15.80
2023-09-27T22:51:09.155Z,15.50
2023-09-27T22:57:51.829Z,15.40
2023-09-27T23:04:35.367Z,15.30
2023-09-27T23:11:20.091Z,15.20
2023-09-27T23:18:11.933Z,15.20
2023-09-27T23:25:12.675Z,15.00
2023-09-27T23:31:59.343Z,15.00
2023-09-27T23:38:56.639Z,15.10
2023-09-27T23:45:39.170Z,14.80
2023-09-27T23:52:24.009Z,14.70
2023-09-27T23:59:20.177Z,14.80
